LFOTLFQG

Guest
Details From LFOT - Tours Val De Loire AB
To LFQG - Nevers Fourchambault
Flight Number -
Tags generated
Created
Modified
Stats Distance 101 nm / 187 km
Max Altitude 4,800 ft / 1,463 m
Waypoints 3
Social Downloads 2
Likes 0
Share VATSIM

Download

Looking for another format? Having issues loading an existing format? Contact us
Advertisement - Login to hide

Notes

Basic altitude profile: - Ascent Rate: 1800ft/min - Ascent Speed: 250kts - Cruise Altitude: 15000ft - Cruise Speed: 250kts - Descent Rate: 1500ft/min - Descent Speed: 240kts Options: - Use NATs: yes - Use PACOTS: yes - Use low airways: yes - Use high airways: no

Route

LFOT AMB LFQG

ID Type Via Altitude Latitude Longitude Leg Dist Tot Dist Heading (true) Name
O LFOT APT - 0 ft / 0 m 47.43297˚ 0.72840˚ - 0 nm - Tours Val De Loire AB
AMB VOR - 4,800 ft / 1,463 m 47.42892˚ 1.06444˚ 13 nm 13 nm 91° / 91° AMBOISE VOR-DME
O LFQG APT - 0 ft / 0 m 47.00290˚ 3.11348˚ 87 nm 101 nm 106° / 108° Nevers Fourchambault

Altitude Profile

Advertisement - Login to hide

LFOT

Details ICAO LFOT (TUF)
Name Tours Val De Loire AB
Region France
Timezone Europe/Paris (UTC+1.0)
Stats Elevation 356 ft / 109 m (AMSL)
Location 47.432974° 0.728402°
Runways 2
Magnetic Variation 0.191° E

METAR

LFOT 120800Z AUTO 21004KT CAVOK 00/M01 Q1011

Decode

TAF

Not found

Departure Runways

ID Width Length Bearing (true) Bearing (mag) Surface Threshold Offset Overrun Length
02 148 ft / 45 m 7,891 ft / 2,405 m 15.22° 15.03° Concrete 0 ft / 0 m 968 ft / 295 m
02R 197 ft / 60 m 4,925 ft / 1,501 m 15.24° 15.05° Grass 0 ft / 0 m 0 ft / 0 m
20 148 ft / 45 m 7,891 ft / 2,405 m 195.22° 195.03° Concrete 0 ft / 0 m 393 ft / 120 m
20L 197 ft / 60 m 4,925 ft / 1,501 m 195.24° 195.05° Grass 0 ft / 0 m 0 ft / 0 m

LFQG

Details ICAO LFQG (NVS)
Name Nevers Fourchambault
Region France
Timezone Europe/Paris (UTC+1.0)
Stats Elevation 602 ft / 183 m (AMSL)
Location 47.002896° 3.113485°
Runways 2
Magnetic Variation 0.912° E

METAR

LFQG 120800Z AUTO VRB02KT 9999 OVC007 02/01 Q1012

Decode

TAF

Not found

Destination Runways

ID Width Length Bearing (true) Bearing (mag) Surface Threshold Offset Overrun Length
12 98 ft / 30 m 5,333 ft / 1,626 m 122.03° 121.12° Asphalt 525 ft / 160 m 0 ft / 0 m
12L 197 ft / 60 m 3,053 ft / 931 m 122.04° 121.13° Grass 0 ft / 0 m 0 ft / 0 m
30 98 ft / 30 m 5,333 ft / 1,626 m 302.04° 301.13° Asphalt 1,280 ft / 390 m 0 ft / 0 m
30R 197 ft / 60 m 3,053 ft / 931 m 302.04° 301.13° Grass 0 ft / 0 m 0 ft / 0 m